sensor_id;sensor_type;location;lat;lon;timestamp;pressure;altitude;pressure_sealevel;temperature;humidity
24486;BME280;13449;49.374;8.584;2022-09-27T00:01:05;98760.91;;;10.33;100.00
24486;BME280;13449;49.374;8.584;2022-09-27T00:03:34;98764.84;;;10.37;100.00
24486;BME280;13449;49.374;8.584;2022-09-27T00:06:21;98773.47;;;10.34;100.00
24486;BME280;13449;49.374;8.584;2022-09-27T00:08:48;98774.53;;;10.33;100.00
24486;BME280;13449;49.374;8.584;2022-09-27T00:11:27;98774.31;;;10.34;100.00
24486;BME280;13449;49.374;8.584;2022-09-27T00:13:56;98767.94;;;10.40;100.00
24486;BME280;13449;49.374;8.584;2022-09-27T00:16:30;98768.41;;;10.37;100.00
24486;BME280;13449;49.374;8.584;2022-09-27T00:19:14;98766.75;;;10.36;100.00
24486;BME280;13449;49.374;8.584;2022-09-27T00:21:44;98765.06;;;10.35;100.00
24486;BME280;13449;49.374;8.584;2022-09-27T00:24:17;98761.28;;;10.36;100.00
24486;BME280;13449;49.374;8.584;2022-09-27T00:26:47;98760.09;;;10.32;100.00
24486;BME280;13449;49.374;8.584;2022-09-27T00:29:16;98753.59;;;10.33;100.00
24486;BME280;13449;49.374;8.584;2022-09-27T00:31:43;98757.13;;;10.34;100.00
24486;BME280;13449;49.374;8.584;2022-09-27T00:34:17;98752.53;;;10.34;100.00
24486;BME280;13449;49.374;8.584;2022-09-27T00:36:44;98745.63;;;10.32;100.00
24486;BME280;13449;49.374;8.584;2022-09-27T00:39:10;98746.69;;;10.31;100.00
24486;BME280;13449;49.374;8.584;2022-09-27T00:41:37;98742.69;;;10.33;100.00
24486;BME280;13449;49.374;8.584;2022-09-27T00:47:02;98733.84;;;10.38;100.00
24486;BME280;13449;49.374;8.584;2022-09-27T00:52:10;98733.59;;;10.39;100.00
24486;BME280;13449;49.374;8.584;2022-09-27T00:54:41;98730.19;;;10.44;100.00
24486;BME280;13449;49.374;8.584;2022-09-27T00:57:09;98729.59;;;10.42;100.00
24486;BME280;13449;49.374;8.584;2022-09-27T00:59:46;98739.03;;;10.39;100.00
24486;BME280;13449;49.374;8.584;2022-09-27T01:02:14;98727.09;;;10.40;100.00
24486;BME280;13449;49.374;8.584;2022-09-27T01:04:42;98727.47;;;10.44;100.00
24486;BME280;13449;49.374;8.584;2022-09-27T01:07:10;98726.88;;;10.42;100.00
24486;BME280;13449;49.374;8.584;2022-09-27T01:09:39;98730.19;;;10.44;100.00
24486;BME280;13449;49.374;8.584;2022-09-27T01:12:22;98730.66;;;10.41;100.00
24486;BME280;13449;49.374;8.584;2022-09-27T01:28:32;98721.47;;;10.35;100.00
24486;BME280;13449;49.374;8.584;2022-09-27T01:33:54;98722.31;;;10.36;100.00
24486;BME280;13449;49.374;8.584;2022-09-27T01:40:00;98718.31;;;10.38;100.00
24486;BME280;13449;49.374;8.584;2022-09-27T01:42:46;98724.81;;;10.37;100.00
24486;BME280;13449;49.374;8.584;2022-09-27T01:45:37;98730.28;;;10.37;100.00
24486;BME280;13449;49.374;8.584;2022-09-27T01:48:39;98730.28;;;10.37;100.00
24486;BME280;13449;49.374;8.584;2022-09-27T01:51:13;98733.22;;;10.36;100.00
24486;BME280;13449;49.374;8.584;2022-09-27T01:53:47;98731.56;;;10.35;100.00
24486;BME280;13449;49.374;8.584;2022-09-27T01:56:23;98738.44;;;10.37;100.00
24486;BME280;13449;49.374;8.584;2022-09-27T01:58:56;98728.00;;;10.34;100.00
24486;BME280;13449;49.374;8.584;2022-09-27T02:01:27;98731.56;;;10.35;100.00
24486;BME280;13449;49.374;8.584;2022-09-27T02:03:56;98734.50;;;10.33;100.00
24486;BME280;13449;49.374;8.584;2022-09-27T02:06:30;98737.03;;;10.35;100.00
24486;BME280;13449;49.374;8.584;2022-09-27T02:09:09;98737.81;;;10.35;100.00
24486;BME280;13449;49.374;8.584;2022-09-27T02:11:40;98737.03;;;10.35;100.00
24486;BME280;13449;49.374;8.584;2022-09-27T02:14:16;98740.34;;;10.37;100.00
24486;BME280;13449;49.374;8.584;2022-09-27T02:16:52;98735.72;;;10.37;100.00
24486;BME280;13449;49.374;8.584;2022-09-27T02:20:10;98743.91;;;10.37;100.00
24486;BME280;13449;49.374;8.584;2022-09-27T02:25:55;98743.53;;;10.34;100.00
24486;BME280;13449;49.374;8.584;2022-09-27T02:28:29;98758.81;;;10.35;100.00
24486;BME280;13449;49.374;8.584;2022-09-27T02:30:58;98747.09;;;10.34;100.00
24486;BME280;13449;49.374;8.584;2022-09-27T02:36:08;98751.44;;;10.35;100.00
24486;BME280;13449;49.374;8.584;2022-09-27T02:38:37;98760.47;;;10.36;100.00
24486;BME280;13449;49.374;8.584;2022-09-27T02:41:14;98756.91;;;10.35;100.00
24486;BME280;13449;49.374;8.584;2022-09-27T02:43:42;98762.97;;;10.37;100.00
24486;BME280;13449;49.374;8.584;2022-09-27T02:54:25;98767.78;;;10.35;100.00
24486;BME280;13449;49.374;8.584;2022-09-27T02:57:29;98775.75;;;10.37;100.00
24486;BME280;13449;49.374;8.584;2022-09-27T03:00:15;98781.00;;;10.38;100.00
24486;BME280;13449;49.374;8.584;2022-09-27T03:03:02;98775.97;;;10.35;100.00
24486;BME280;13449;49.374;8.584;2022-09-27T03:05:38;98783.09;;;10.36;100.00
24486;BME280;13449;49.374;8.584;2022-09-27T03:08:07;98773.94;;;10.31;100.00
24486;BME280;13449;49.374;8.584;2022-09-27T03:10:33;98788.38;;;10.31;100.00
24486;BME280;13449;49.374;8.584;2022-09-27T03:13:00;98785.22;;;10.34;100.00
24486;BME280;13449;49.374;8.584;2022-09-27T03:15:27;98781.66;;;10.34;100.00
24486;BME280;13449;49.374;8.584;2022-09-27T03:17:53;98789.00;;;10.33;100.00
24486;BME280;13449;49.374;8.584;2022-09-27T03:20:22;98789.22;;;10.32;100.00
24486;BME280;13449;49.374;8.584;2022-09-27T03:22:49;98798.84;;;10.34;100.00
24486;BME280;13449;49.374;8.584;2022-09-27T03:25:17;98795.28;;;10.34;100.00
24486;BME280;13449;49.374;8.584;2022-09-27T03:27:47;98798.22;;;10.32;100.00
24486;BME280;13449;49.374;8.584;2022-09-27T03:30:13;98807.44;;;10.31;100.00
24486;BME280;13449;49.374;8.584;2022-09-27T03:32:42;98812.88;;;10.31;100.00
24486;BME280;13449;49.374;8.584;2022-09-27T03:35:13;98793.22;;;10.29;100.00
24486;BME280;13449;49.374;8.584;2022-09-27T03:37:40;98803.06;;;10.30;100.00
24486;BME280;13449;49.374;8.584;2022-09-27T03:40:08;98807.06;;;10.28;100.00
24486;BME280;13449;49.374;8.584;2022-09-27T03:42:37;98798.09;;;10.27;100.00
24486;BME280;13449;49.374;8.584;2022-09-27T03:45:04;98803.53;;;10.27;100.00
24486;BME280;13449;49.374;8.584;2022-09-27T03:47:31;98804.34;;;10.28;100.00
24486;BME280;13449;49.374;8.584;2022-09-27T03:49:57;98806.25;;;10.27;100.00
24486;BME280;13449;49.374;8.584;2022-09-27T03:52:24;98811.91;;;10.26;100.00
24486;BME280;13449;49.374;8.584;2022-09-27T03:54:50;98810.03;;;10.26;100.00
24486;BME280;13449;49.374;8.584;2022-09-27T03:57:17;98810.47;;;10.23;100.00
24486;BME280;13449;49.374;8.584;2022-09-27T03:59:43;98813.81;;;10.25;100.00
24486;BME280;13449;49.374;8.584;2022-09-27T04:02:09;98820.53;;;10.23;100.00
24486;BME280;13449;49.374;8.584;2022-09-27T04:04:38;98825.75;;;10.24;100.00
24486;BME280;13449;49.374;8.584;2022-09-27T04:07:05;98826.81;;;10.23;100.00
24486;BME280;13449;49.374;8.584;2022-09-27T04:09:31;98835.59;;;10.25;100.00
24486;BME280;13449;49.374;8.584;2022-09-27T04:12:00;98835.00;;;10.23;100.00
24486;BME280;13449;49.374;8.584;2022-09-27T04:14:26;98836.63;;;10.24;100.00
24486;BME280;13449;49.374;8.584;2022-09-27T04:16:56;98836.88;;;10.23;100.00
24486;BME280;13449;49.374;8.584;2022-09-27T04:19:22;98842.53;;;10.21;100.00
24486;BME280;13449;49.374;8.584;2022-09-27T04:21:51;98851.38;;;10.16;100.00
24486;BME280;13449;49.374;8.584;2022-09-27T04:24:18;98852.00;;;10.18;100.00
24486;BME280;13449;49.374;8.584;2022-09-27T04:26:44;98846.16;;;10.15;100.00
24486;BME280;13449;49.374;8.584;2022-09-27T04:29:13;98846.16;;;10.15;100.00
24486;BME280;13449;49.374;8.584;2022-09-27T04:31:42;98850.13;;;10.12;100.00
24486;BME280;13449;49.374;8.584;2022-09-27T04:34:12;98854.53;;;10.13;100.00
24486;BME280;13449;49.374;8.584;2022-09-27T04:36:39;98854.97;;;10.10;100.00
24486;BME280;13449;49.374;8.584;2022-09-27T04:39:09;98857.69;;;10.10;100.00
24486;BME280;13449;49.374;8.584;2022-09-27T04:41:36;98857.31;;;10.07;100.00
24486;BME280;13449;49.374;8.584;2022-09-27T04:44:03;98861.72;;;10.08;100.00
24486;BME280;13449;49.374;8.584;2022-09-27T04:49:03;98862.56;;;10.02;100.00
24486;BME280;13449;49.374;8.584;2022-09-27T04:51:32;98867.81;;;10.03;100.00
24486;BME280;13449;49.374;8.584;2022-09-27T04:53:58;98873.72;;;10.00;100.00
24486;BME280;13449;49.374;8.584;2022-09-27T04:56:24;98873.47;;;10.02;100.00
24486;BME280;13449;49.374;8.584;2022-09-27T04:58:51;98875.66;;;9.93;100.00
24486;BME280;13449;49.374;8.584;2022-09-27T05:01:19;98879.81;;;9.96;100.00
24486;BME280;13449;49.374;8.584;2022-09-27T05:03:48;98876.47;;;9.94;100.00
24486;BME280;13449;49.374;8.584;2022-09-27T05:06:14;98881.50;;;9.90;100.00
24486;BME280;13449;49.374;8.584;2022-09-27T05:08:41;98875.09;;;9.85;100.00
24486;BME280;13449;49.374;8.584;2022-09-27T05:11:07;98889.28;;;9.87;100.00
24486;BME280;13449;49.374;8.584;2022-09-27T05:13:34;98887.00;;;9.84;100.00
24486;BME280;13449;49.374;8.584;2022-09-27T05:16:02;98894.41;;;9.77;100.00
24486;BME280;13449;49.374;8.584;2022-09-27T05:18:29;98895.00;;;9.79;100.00
24486;BME280;13449;49.374;8.584;2022-09-27T05:21:01;98896.72;;;9.73;100.00
24486;BME280;13449;49.374;8.584;2022-09-27T05:23:27;98893.78;;;9.75;100.00
24486;BME280;13449;49.374;8.584;2022-09-27T05:25:53;98903.84;;;9.74;100.00
24486;BME280;13449;49.374;8.584;2022-09-27T05:28:22;98910.53;;;9.71;100.00
24486;BME280;13449;49.374;8.584;2022-09-27T05:30:51;98917.88;;;9.71;100.00
24486;BME280;13449;49.374;8.584;2022-09-27T05:33:21;98917.25;;;9.69;100.00
24486;BME280;13449;49.374;8.584;2022-09-27T05:35:52;98924.44;;;9.63;100.00
24486;BME280;13449;49.374;8.584;2022-09-27T05:38:18;98926.72;;;9.66;100.00
24486;BME280;13449;49.374;8.584;2022-09-27T05:40:45;98936.97;;;9.64;100.00
24486;BME280;13449;49.374;8.584;2022-09-27T05:43:13;98937.59;;;9.66;100.00
24486;BME280;13449;49.374;8.584;2022-09-27T05:45:43;98938.63;;;9.65;100.00
24486;BME280;13449;49.374;8.584;2022-09-27T05:48:10;98947.41;;;9.67;100.00
24486;BME280;13449;49.374;8.584;2022-09-27T05:50:39;98938.84;;;9.64;100.00
24486;BME280;13449;49.374;8.584;2022-09-27T05:53:06;98946.81;;;9.65;100.00
24486;BME280;13449;49.374;8.584;2022-09-27T05:55:32;98947.84;;;9.64;100.00
24486;BME280;13449;49.374;8.584;2022-09-27T05:58:06;98950.13;;;9.67;100.00
24486;BME280;13449;49.374;8.584;2022-09-27T06:00:33;98958.09;;;9.69;100.00
24486;BME280;13449;49.374;8.584;2022-09-27T06:03:02;98954.97;;;9.65;100.00
24486;BME280;13449;49.374;8.584;2022-09-27T06:05:34;98951.81;;;9.68;100.00
24486;BME280;13449;49.374;8.584;2022-09-27T06:08:07;98961.19;;;9.73;100.00
24486;BME280;13449;49.374;8.584;2022-09-27T06:10:34;98957.47;;;9.67;100.00
24486;BME280;13449;49.374;8.584;2022-09-27T06:13:11;98958.09;;;9.69;100.00
24486;BME280;13449;49.374;8.584;2022-09-27T06:15:43;98965.41;;;9.68;100.00
24486;BME280;13449;49.374;8.584;2022-09-27T06:18:14;98957.41;;;9.80;100.00
24486;BME280;13449;49.374;8.584;2022-09-27T06:20:44;98956.59;;;9.73;100.00
24486;BME280;13449;49.374;8.584;2022-09-27T06:23:13;98957.66;;;9.72;100.00
24486;BME280;13449;49.374;8.584;2022-09-27T06:25:44;98964.56;;;9.75;100.00
24486;BME280;13449;49.374;8.584;2022-09-27T06:28:11;98960.13;;;9.80;100.00
24486;BME280;13449;49.374;8.584;2022-09-27T06:30:42;98958.69;;;9.78;100.00
24486;BME280;13449;49.374;8.584;2022-09-27T06:33:11;98968.22;;;9.87;100.00
24486;BME280;13449;49.374;8.584;2022-09-27T06:35:39;98965.50;;;9.87;100.00
24486;BME280;13449;49.374;8.584;2022-09-27T06:38:09;98969.31;;;9.86;100.00
24486;BME280;13449;49.374;8.584;2022-09-27T06:40:36;98982.47;;;9.89;100.00
24486;BME280;13449;49.374;8.584;2022-09-27T06:43:07;98984.09;;;9.96;100.00
24486;BME280;13449;49.374;8.584;2022-09-27T06:45:35;98985.34;;;10.00;100.00
24486;BME280;13449;49.374;8.584;2022-09-27T06:48:04;98983.00;;;10.04;100.00
24486;BME280;13449;49.374;8.584;2022-09-27T06:50:33;98985.69;;;10.10;100.00
24486;BME280;13449;49.374;8.584;2022-09-27T06:53:01;98990.75;;;10.07;100.00
24486;BME280;13449;49.374;8.584;2022-09-27T06:55:27;98995.75;;;10.10;100.00
24486;BME280;13449;49.374;8.584;2022-09-27T06:57:55;98995.50;;;10.18;100.00
24486;BME280;13449;49.374;8.584;2022-09-27T07:00:41;99002.78;;;10.24;100.00
24486;BME280;13449;49.374;8.584;2022-09-27T07:03:09;99003.75;;;10.36;100.00
24486;BME280;13449;49.374;8.584;2022-09-27T07:05:37;99010.22;;;10.42;100.00
24486;BME280;13449;49.374;8.584;2022-09-27T07:08:03;99013.38;;;10.39;100.00
24486;BME280;13449;49.374;8.584;2022-09-27T07:10:33;99014.31;;;10.26;100.00
24486;BME280;13449;49.374;8.584;2022-09-27T07:13:04;99021.25;;;10.22;100.00
24486;BME280;13449;49.374;8.584;2022-09-27T07:15:39;99034.44;;;10.25;100.00
24486;BME280;13449;49.374;8.584;2022-09-27T07:18:07;99031.91;;;10.30;100.00
24486;BME280;13449;49.374;8.584;2022-09-27T07:20:34;99029.16;;;10.30;100.00
24486;BME280;13449;49.374;8.584;2022-09-27T07:23:05;99033.38;;;10.26;100.00
24486;BME280;13449;49.374;8.584;2022-09-27T07:25:34;99047.59;;;10.35;100.00
24486;BME280;13449;49.374;8.584;2022-09-27T07:28:07;99044.63;;;10.36;100.00
24486;BME280;13449;49.374;8.584;2022-09-27T07:30:36;99051.75;;;10.37;100.00
24486;BME280;13449;49.374;8.584;2022-09-27T07:33:04;99055.19;;;10.26;100.00
24486;BME280;13449;49.374;8.584;2022-09-27T07:35:31;99056.44;;;10.24;100.00
24486;BME280;13449;49.374;8.584;2022-09-27T07:37:58;99059.97;;;10.31;100.00
24486;BME280;13449;49.374;8.584;2022-09-27T07:40:25;99064.31;;;10.38;100.00
24486;BME280;13449;49.374;8.584;2022-09-27T07:42:55;99070.19;;;10.35;100.00
24486;BME280;13449;49.374;8.584;2022-09-27T07:45:23;99072.31;;;10.33;100.00
24486;BME280;13449;49.374;8.584;2022-09-27T07:47:49;99070.44;;;10.34;100.00
24486;BME280;13449;49.374;8.584;2022-09-27T07:50:16;99078.38;;;10.35;100.00
24486;BME280;13449;49.374;8.584;2022-09-27T07:52:45;99077.94;;;10.38;100.00
24486;BME280;13449;49.374;8.584;2022-09-27T07:55:13;99079.38;;;10.41;100.00
24486;BME280;13449;49.374;8.584;2022-09-27T07:57:40;99085.69;;;10.41;100.00
24486;BME280;13449;49.374;8.584;2022-09-27T08:00:14;99090.06;;;10.42;100.00
24486;BME280;13449;49.374;8.584;2022-09-27T08:02:42;99079.78;;;10.44;100.00
24486;BME280;13449;49.374;8.584;2022-09-27T08:05:12;99092.53;;;10.50;100.00
24486;BME280;13449;49.374;8.584;2022-09-27T08:07:41;99089.38;;;10.53;100.00
24486;BME280;13449;49.374;8.584;2022-09-27T08:10:07;99087.31;;;10.42;100.00
24486;BME280;13449;49.374;8.584;2022-09-27T08:12:35;99081.84;;;10.49;100.00
24486;BME280;13449;49.374;8.584;2022-09-27T08:15:02;99086.22;;;10.56;100.00
24486;BME280;13449;49.374;8.584;2022-09-27T08:17:31;99091.22;;;10.59;100.00
24486;BME280;13449;49.374;8.584;2022-09-27T08:19:57;99092.00;;;10.66;100.00
24486;BME280;13449;49.374;8.584;2022-09-27T08:22:24;99086.34;;;10.68;100.00
24486;BME280;13449;49.374;8.584;2022-09-27T08:24:51;99085.66;;;10.73;100.00
24486;BME280;13449;49.374;8.584;2022-09-27T08:27:17;99085.50;;;10.68;100.00
24486;BME280;13449;49.374;8.584;2022-09-27T08:29:45;99092.19;;;10.72;100.00
24486;BME280;13449;49.374;8.584;2022-09-27T08:32:13;99093.41;;;10.76;100.00
24486;BME280;13449;49.374;8.584;2022-09-27T08:34:48;99094.00;;;10.78;100.00
24486;BME280;13449;49.374;8.584;2022-09-27T08:37:14;99093.75;;;10.86;100.00
24486;BME280;13449;49.374;8.584;2022-09-27T08:39:41;99095.97;;;10.95;100.00
24486;BME280;13449;49.374;8.584;2022-09-27T08:48:00;99098.84;;;11.25;100.00
24486;BME280;13449;49.374;8.584;2022-09-27T08:50:34;99105.47;;;11.36;100.00
24486;BME280;13449;49.374;8.584;2022-09-27T08:53:48;99116.59;;;11.34;100.00
24486;BME280;13449;49.374;8.584;2022-09-27T08:56:13;99120.16;;;11.35;100.00
24486;BME280;13449;49.374;8.584;2022-09-27T08:59:00;99115.38;;;11.30;100.00
24486;BME280;13449;49.374;8.584;2022-09-27T09:01:29;99115.53;;;11.17;100.00
24486;BME280;13449;49.374;8.584;2022-09-27T09:04:01;99117.44;;;11.10;100.00
24486;BME280;13449;49.374;8.584;2022-09-27T09:06:39;99120.16;;;11.10;100.00
24486;BME280;13449;49.374;8.584;2022-09-27T09:21:06;99124.00;;;11.70;100.00
24486;BME280;13449;49.374;8.584;2022-09-27T09:23:51;99125.19;;;11.81;100.00
24486;BME280;13449;49.374;8.584;2022-09-27T09:26:44;99110.06;;;11.96;100.00
24486;BME280;13449;49.374;8.584;2022-09-27T09:29:33;99116.38;;;11.97;100.00
24486;BME280;13449;49.374;8.584;2022-09-27T09:35:05;99113.25;;;11.93;100.00
24486;BME280;13449;49.374;8.584;2022-09-27T09:37:46;99111.53;;;11.81;100.00
24486;BME280;13449;49.374;8.584;2022-09-27T09:40:39;99111.63;;;11.68;100.00
24486;BME280;13449;49.374;8.584;2022-09-27T09:46:02;99110.16;;;11.72;100.00
24486;BME280;13449;49.374;8.584;2022-09-27T09:48:53;99108.06;;;11.67;100.00
24486;BME280;13449;49.374;8.584;2022-09-27T09:51:26;99114.38;;;11.68;100.00
24486;BME280;13449;49.374;8.584;2022-09-27T09:53:57;99116.94;;;11.62;100.00
24486;BME280;13449;49.374;8.584;2022-09-27T09:56:33;99116.63;;;11.52;100.00
24486;BME280;13449;49.374;8.584;2022-09-27T09:59:14;99115.78;;;11.52;100.00
24486;BME280;13449;49.374;8.584;2022-09-27T10:01:44;99112.75;;;11.42;100.00
24486;BME280;13449;49.374;8.584;2022-09-27T10:04:23;99116.88;;;11.51;100.00
24486;BME280;13449;49.374;8.584;2022-09-27T10:06:52;99113.53;;;11.49;100.00
24486;BME280;13449;49.374;8.584;2022-09-27T10:09:25;99114.94;;;11.51;100.00
24486;BME280;13449;49.374;8.584;2022-09-27T10:11:53;99112.09;;;11.64;100.00
24486;BME280;13449;49.374;8.584;2022-09-27T10:14:22;99120.66;;;11.68;100.00
24486;BME280;13449;49.374;8.584;2022-09-27T10:16:53;99118.78;;;11.69;100.00
24486;BME280;13449;49.374;8.584;2022-09-27T10:19:29;99120.66;;;11.68;100.00
24486;BME280;13449;49.374;8.584;2022-09-27T10:22:02;99111.25;;;11.64;100.00
24486;BME280;13449;49.374;8.584;2022-09-27T10:25:02;99111.78;;;11.54;100.00
24486;BME280;13449;49.374;8.584;2022-09-27T10:27:42;99108.72;;;11.44;100.00
24486;BME280;13449;49.374;8.584;2022-09-27T10:32:58;99104.25;;;11.32;100.00
24486;BME280;13449;49.374;8.584;2022-09-27T10:40:49;99118.53;;;11.70;100.00
24486;BME280;13449;49.374;8.584;2022-09-27T10:43:33;99114.81;;;11.64;100.00
24486;BME280;13449;49.374;8.584;2022-09-27T10:46:11;99110.31;;;11.77;100.00
24486;BME280;13449;49.374;8.584;2022-09-27T10:48:39;99110.25;;;11.40;100.00
24486;BME280;13449;49.374;8.584;2022-09-27T10:51:21;99105.13;;;11.50;100.00
24486;BME280;13449;49.374;8.584;2022-09-27T10:53:49;99107.38;;;11.53;100.00
24486;BME280;13449;49.374;8.584;2022-09-27T10:56:28;99099.09;;;11.42;100.00
24486;BME280;13449;49.374;8.584;2022-09-27T10:58:56;99101.63;;;11.43;100.00
24486;BME280;13449;49.374;8.584;2022-09-27T11:01:26;99099.78;;;11.55;100.00
24486;BME280;13449;49.374;8.584;2022-09-27T11:04:03;99101.00;;;11.59;100.00
24486;BME280;13449;49.374;8.584;2022-09-27T11:06:31;99104.41;;;11.37;100.00
24486;BME280;13449;49.374;8.584;2022-09-27T11:09:24;99099.69;;;11.26;100.00
24486;BME280;13449;49.374;8.584;2022-09-27T11:12:12;99098.25;;;11.41;100.00
24486;BME280;13449;49.374;8.584;2022-09-27T11:14:40;99095.25;;;11.68;100.00
24486;BME280;13449;49.374;8.584;2022-09-27T11:27:48;99090.97;;;11.78;100.00
24486;BME280;13449;49.374;8.584;2022-09-27T11:30:21;99081.16;;;11.89;100.00
24486;BME280;13449;49.374;8.584;2022-09-27T11:33:23;99079.13;;;12.02;100.00
24486;BME280;13449;49.374;8.584;2022-09-27T11:36:26;99074.44;;;11.91;100.00
24486;BME280;13449;49.374;8.584;2022-09-27T11:50:24;99047.38;;;12.73;100.00
24486;BME280;13449;49.374;8.584;2022-09-27T11:56:18;99043.03;;;13.06;100.00
24486;BME280;13449;49.374;8.584;2022-09-27T12:04:49;99030.41;;;12.94;97.63
24486;BME280;13449;49.374;8.584;2022-09-27T12:09:56;99033.50;;;13.55;100.00
24486;BME280;13449;49.374;8.584;2022-09-27T12:12:28;99021.47;;;13.57;96.02
24486;BME280;13449;49.374;8.584;2022-09-27T12:15:14;99027.28;;;13.72;90.62
24486;BME280;13449;49.374;8.584;2022-09-27T12:17:44;99020.78;;;13.49;93.29
24486;BME280;13449;49.374;8.584;2022-09-27T12:22:54;99018.44;;;13.18;97.82
24486;BME280;13449;49.374;8.584;2022-09-27T12:25:30;99016.66;;;13.12;94.61
24486;BME280;13449;49.374;8.584;2022-09-27T12:28:13;99014.94;;;12.99;96.56
24486;BME280;13449;49.374;8.584;2022-09-27T12:30:47;99014.69;;;12.78;98.77
24486;BME280;13449;49.374;8.584;2022-09-27T12:33:47;99012.31;;;12.70;98.93
24486;BME280;13449;49.374;8.584;2022-09-27T12:36:18;99010.94;;;12.49;94.61
24486;BME280;13449;49.374;8.584;2022-09-27T12:38:59;99004.72;;;12.30;96.11
24486;BME280;13449;49.374;8.584;2022-09-27T12:41:29;99008.72;;;12.16;95.04
24486;BME280;13449;49.374;8.584;2022-09-27T12:43:58;99018.91;;;12.09;89.12
24486;BME280;13449;49.374;8.584;2022-09-27T12:46:49;98998.38;;;12.06;98.46
24486;BME280;13449;49.374;8.584;2022-09-27T12:49:41;99008.03;;;11.91;96.37
24486;BME280;13449;49.374;8.584;2022-09-27T12:52:18;99022.59;;;11.85;93.14
24486;BME280;13449;49.374;8.584;2022-09-27T12:58:07;99003.41;;;11.91;98.57
24486;BME280;13449;49.374;8.584;2022-09-27T13:00:45;99014.47;;;11.96;98.97
24486;BME280;13449;49.374;8.584;2022-09-27T13:09:07;99016.19;;;12.09;98.12
24486;BME280;13449;49.374;8.584;2022-09-27T13:14:33;99010.03;;;12.14;96.94
24486;BME280;13449;49.374;8.584;2022-09-27T13:17:03;99009.78;;;12.15;97.95
24486;BME280;13449;49.374;8.584;2022-09-27T13:19:42;98993.53;;;12.20;100.00
24486;BME280;13449;49.374;8.584;2022-09-27T13:22:36;98990.38;;;12.35;95.95
24486;BME280;13449;49.374;8.584;2022-09-27T13:31:01;98987.22;;;12.73;97.17
24486;BME280;13449;49.374;8.584;2022-09-27T13:44:39;98985.19;;;12.80;89.29
24486;BME280;13449;49.374;8.584;2022-09-27T13:51:05;98974.88;;;12.70;88.90
24486;BME280;13449;49.374;8.584;2022-09-27T13:53:30;98981.50;;;12.63;86.41
24486;BME280;13449;49.374;8.584;2022-09-27T13:55:59;98987.19;;;12.61;84.52
24486;BME280;13449;49.374;8.584;2022-09-27T13:58:40;98984.22;;;12.51;85.11
24486;BME280;13449;49.374;8.584;2022-09-27T14:01:27;98979.09;;;12.43;86.26
24486;BME280;13449;49.374;8.584;2022-09-27T14:04:00;98966.00;;;12.45;88.17
24486;BME280;13449;49.374;8.584;2022-09-27T14:06:31;98976.97;;;12.56;87.89
24486;BME280;13449;49.374;8.584;2022-09-27T14:09:04;98979.59;;;12.75;87.30
24486;BME280;13449;49.374;8.584;2022-09-27T14:11:39;98986.03;;;12.92;90.16
24486;BME280;13449;49.374;8.584;2022-09-27T14:14:18;98995.66;;;12.94;87.24
24486;BME280;13449;49.374;8.584;2022-09-27T14:16:48;99005.31;;;12.74;84.14
24486;BME280;13449;49.374;8.584;2022-09-27T14:19:20;99003.38;;;12.63;84.70
24486;BME280;13449;49.374;8.584;2022-09-27T14:21:47;98990.94;;;12.78;86.46
24486;BME280;13449;49.374;8.584;2022-09-27T14:24:25;98993.75;;;12.95;87.76
24486;BME280;13449;49.374;8.584;2022-09-27T14:30:00;98996.59;;;12.65;85.36
24486;BME280;13449;49.374;8.584;2022-09-27T14:32:33;98992.88;;;12.36;85.69
24486;BME280;13449;49.374;8.584;2022-09-27T14:35:06;98992.84;;;12.25;87.26
24486;BME280;13449;49.374;8.584;2022-09-27T14:37:56;98987.94;;;12.15;89.83
24486;BME280;13449;49.374;8.584;2022-09-27T14:40:24;98990.41;;;12.05;86.99
24486;BME280;13449;49.374;8.584;2022-09-27T14:42:55;98989.34;;;12.06;88.63
24486;BME280;13449;49.374;8.584;2022-09-27T14:45:27;98983.63;;;12.07;90.19
24486;BME280;13449;49.374;8.584;2022-09-27T14:48:01;98984.94;;;12.05;91.87
24486;BME280;13449;49.374;8.584;2022-09-27T14:56:16;99002.25;;;11.99;89.94
24486;BME280;13449;49.374;8.584;2022-09-27T14:58:45;98995.63;;;12.06;91.43
24486;BME280;13449;49.374;8.584;2022-09-27T15:01:15;98993.75;;;12.07;92.53
24486;BME280;13449;49.374;8.584;2022-09-27T15:03:46;99001.78;;;12.02;90.55
24486;BME280;13449;49.374;8.584;2022-09-27T15:06:18;98998.91;;;11.97;90.18
24486;BME280;13449;49.374;8.584;2022-09-27T15:08:46;99001.16;;;12.00;91.13
24486;BME280;13449;49.374;8.584;2022-09-27T15:11:16;98996.44;;;11.95;90.49
24486;BME280;13449;49.374;8.584;2022-09-27T15:13:43;99001.28;;;11.93;92.10
24486;BME280;13449;49.374;8.584;2022-09-27T15:16:16;99013.31;;;12.04;91.47
24486;BME280;13449;49.374;8.584;2022-09-27T15:18:47;99014.66;;;12.13;91.08
24486;BME280;13449;49.374;8.584;2022-09-27T15:21:27;99019.81;;;12.21;91.51
24486;BME280;13449;49.374;8.584;2022-09-27T15:23:54;99016.34;;;12.14;90.84
24486;BME280;13449;49.374;8.584;2022-09-27T15:26:45;99016.91;;;12.16;90.74
24486;BME280;13449;49.374;8.584;2022-09-27T15:29:20;99013.94;;;12.06;90.84
24486;BME280;13449;49.374;8.584;2022-09-27T15:32:06;99021.84;;;11.96;89.71
24486;BME280;13449;49.374;8.584;2022-09-27T15:34:34;99028.06;;;11.85;87.62
24486;BME280;13449;49.374;8.584;2022-09-27T15:37:03;99022.31;;;11.75;87.77
24486;BME280;13449;49.374;8.584;2022-09-27T15:39:33;99019.03;;;11.66;89.35
24486;BME280;13449;49.374;8.584;2022-09-27T15:42:08;99011.59;;;11.55;91.61
24486;BME280;13449;49.374;8.584;2022-09-27T15:52:44;99010.56;;;11.38;95.07
24486;BME280;13449;49.374;8.584;2022-09-27T15:55:20;99016.84;;;11.38;94.34
24486;BME280;13449;49.374;8.584;2022-09-27T15:57:58;99020.63;;;11.37;94.54
24486;BME280;13449;49.374;8.584;2022-09-27T16:00:27;99027.41;;;11.35;92.35